Canebrake, West Virginia
Current Conditions -  °F | °C
As of 6:35 AM on Wednesday 26 Nov 2014 (Local Time) from KJFZ Reporting Station
Light Snow Light Snow  
Wind Chill:   Ceiling: 700
Heat Index:   Visibility: 4mi
Dew Point:   Wind: 7mph
Humidity: 91%   Direction: 270°W
Pressure: 29.97"   Gusts: NA
Location:  37.2686°N, 81.6669°W
Report Text: KJFZ 261135Z AUTO 27006KT 4SM -SN OVC007 03/02 A2997 RMK AO2 P0004 T00280015
Loading
Personal Weather Stations






























Interactive Weather Map New forecast layout! Learn more

10-Day Weather Forecast

Advertisements
Track Severe Weather on mobile